Aviation Digital Data Service (ADDS)

Output produced by METARs form (0509 UTC 20 October 2017)
found at http://aviationweather.gov/adds/metars/
 
KRIC 192320Z 2000/2024 VRB03KT P6SM SCT250 
     FM201300 36005KT P6SM SKC